Louisvale, South Africa
Current Conditions -  °F | °C
As of 5:00 PM on Saturday 20 Dec 2014 (Local Time) from FAUP Reporting Station
Clear Clear  
Wind Chill: 95°   Ceiling: Unl
Heat Index: 95°   Visibility: 6mi
Dew Point: 23°   Wind: 10mph
Humidity: 7%   Direction: 230°SW
Pressure: 29.88"   Gusts: NA
Location:  28.57°S, 21.2°E
Report Text: FAUP 201500Z 23009KT CAVOK 35/M05 Q1012 NOSIG
Loading
Personal Weather Stations






























Interactive Weather Map New forecast layout! Learn more

10-Day Weather Forecast

Advertisements
Track Severe Weather on mobile